sensor_id;sensor_type;location;lat;lon;timestamp;temperature;humidity
29345;DHT22;16339;48.748;2.222;2023-05-10T00:01:55;15.30;92.40
29345;DHT22;16339;48.748;2.222;2023-05-10T00:04:23;15.50;92.40
29345;DHT22;16339;48.748;2.222;2023-05-10T00:06:53;15.50;92.00
29345;DHT22;16339;48.748;2.222;2023-05-10T00:09:24;15.60;91.80
29345;DHT22;16339;48.748;2.222;2023-05-10T00:11:52;15.60;91.50
29345;DHT22;16339;48.748;2.222;2023-05-10T00:14:24;15.70;91.70
29345;DHT22;16339;48.748;2.222;2023-05-10T00:16:52;15.70;91.60
29345;DHT22;16339;48.748;2.222;2023-05-10T00:19:24;15.60;91.70
29345;DHT22;16339;48.748;2.222;2023-05-10T00:21:52;15.70;91.80
29345;DHT22;16339;48.748;2.222;2023-05-10T00:24:24;15.90;92.20
29345;DHT22;16339;48.748;2.222;2023-05-10T00:26:52;15.90;91.80
29345;DHT22;16339;48.748;2.222;2023-05-10T00:29:21;15.90;91.50
29345;DHT22;16339;48.748;2.222;2023-05-10T00:31:50;15.90;91.00
29345;DHT22;16339;48.748;2.222;2023-05-10T00:34:18;15.90;90.90
29345;DHT22;16339;48.748;2.222;2023-05-10T00:36:47;15.90;90.70
29345;DHT22;16339;48.748;2.222;2023-05-10T00:39:16;15.80;90.70
29345;DHT22;16339;48.748;2.222;2023-05-10T00:41:47;15.80;90.60
29345;DHT22;16339;48.748;2.222;2023-05-10T00:44:16;15.80;90.80
29345;DHT22;16339;48.748;2.222;2023-05-10T00:46:45;15.80;90.60
29345;DHT22;16339;48.748;2.222;2023-05-10T00:49:13;15.80;90.80
29345;DHT22;16339;48.748;2.222;2023-05-10T00:51:42;15.80;90.60
29345;DHT22;16339;48.748;2.222;2023-05-10T00:54:11;15.70;90.60
29345;DHT22;16339;48.748;2.222;2023-05-10T00:56:41;15.70;90.70
29345;DHT22;16339;48.748;2.222;2023-05-10T00:59:17;15.60;90.60
29345;DHT22;16339;48.748;2.222;2023-05-10T01:01:46;15.60;90.80
29345;DHT22;16339;48.748;2.222;2023-05-10T01:04:15;15.70;90.80
29345;DHT22;16339;48.748;2.222;2023-05-10T01:06:45;15.70;90.70
29345;DHT22;16339;48.748;2.222;2023-05-10T01:09:14;15.50;90.70
29345;DHT22;16339;48.748;2.222;2023-05-10T01:11:43;15.50;91.00
29345;DHT22;16339;48.748;2.222;2023-05-10T01:14:12;15.50;91.00
29345;DHT22;16339;48.748;2.222;2023-05-10T01:16:44;15.60;91.00
29345;DHT22;16339;48.748;2.222;2023-05-10T01:19:18;15.70;90.90
29345;DHT22;16339;48.748;2.222;2023-05-10T01:21:52;15.60;90.60
29345;DHT22;16339;48.748;2.222;2023-05-10T01:27:30;15.60;90.80
29345;DHT22;16339;48.748;2.222;2023-05-10T01:30:31;15.70;91.10
29345;DHT22;16339;48.748;2.222;2023-05-10T01:33:08;15.80;90.90
29345;DHT22;16339;48.748;2.222;2023-05-10T01:35:43;15.80;90.50
29345;DHT22;16339;48.748;2.222;2023-05-10T01:38:21;15.70;90.50
29345;DHT22;16339;48.748;2.222;2023-05-10T01:40:57;15.80;90.60
29345;DHT22;16339;48.748;2.222;2023-05-10T01:43:35;15.80;90.50
29345;DHT22;16339;48.748;2.222;2023-05-10T01:46:09;15.70;90.50
29345;DHT22;16339;48.748;2.222;2023-05-10T01:48:47;15.70;90.50
29345;DHT22;16339;48.748;2.222;2023-05-10T01:51:21;15.60;90.60
29345;DHT22;16339;48.748;2.222;2023-05-10T01:53:53;15.60;90.40
29345;DHT22;16339;48.748;2.222;2023-05-10T01:56:24;15.50;90.70
29345;DHT22;16339;48.748;2.222;2023-05-10T01:58:55;15.60;91.00
29345;DHT22;16339;48.748;2.222;2023-05-10T02:01:25;15.70;90.60
29345;DHT22;16339;48.748;2.222;2023-05-10T02:03:58;15.80;90.70
29345;DHT22;16339;48.748;2.222;2023-05-10T02:06:27;15.70;90.40
29345;DHT22;16339;48.748;2.222;2023-05-10T02:08:57;15.70;90.40
29345;DHT22;16339;48.748;2.222;2023-05-10T02:11:27;15.70;90.40
29345;DHT22;16339;48.748;2.222;2023-05-10T02:13:57;15.80;90.80
29345;DHT22;16339;48.748;2.222;2023-05-10T02:16:27;15.80;90.70
29345;DHT22;16339;48.748;2.222;2023-05-10T02:18:59;15.90;90.90
29345;DHT22;16339;48.748;2.222;2023-05-10T02:21:30;16.00;90.70
29345;DHT22;16339;48.748;2.222;2023-05-10T02:24:01;16.00;90.30
29345;DHT22;16339;48.748;2.222;2023-05-10T02:26:32;16.10;90.30
29345;DHT22;16339;48.748;2.222;2023-05-10T02:29:03;16.10;90.30
29345;DHT22;16339;48.748;2.222;2023-05-10T02:31:33;16.10;90.30
29345;DHT22;16339;48.748;2.222;2023-05-10T02:34:07;16.10;90.20
29345;DHT22;16339;48.748;2.222;2023-05-10T02:36:38;16.10;90.20
29345;DHT22;16339;48.748;2.222;2023-05-10T02:39:07;16.00;90.30
29345;DHT22;16339;48.748;2.222;2023-05-10T02:41:39;15.90;90.50
29345;DHT22;16339;48.748;2.222;2023-05-10T02:44:09;15.70;90.50
29345;DHT22;16339;48.748;2.222;2023-05-10T02:46:38;15.60;90.80
29345;DHT22;16339;48.748;2.222;2023-05-10T02:49:09;15.60;91.00
29345;DHT22;16339;48.748;2.222;2023-05-10T02:51:42;15.70;91.10
29345;DHT22;16339;48.748;2.222;2023-05-10T02:54:15;15.80;91.50
29345;DHT22;16339;48.748;2.222;2023-05-10T02:56:50;15.70;91.00
29345;DHT22;16339;48.748;2.222;2023-05-10T02:59:19;15.70;91.10
29345;DHT22;16339;48.748;2.222;2023-05-10T03:01:48;15.80;91.20
29345;DHT22;16339;48.748;2.222;2023-05-10T03:04:19;15.80;91.10
29345;DHT22;16339;48.748;2.222;2023-05-10T03:06:48;15.80;91.20
29345;DHT22;16339;48.748;2.222;2023-05-10T03:09:17;15.80;91.10
29345;DHT22;16339;48.748;2.222;2023-05-10T03:11:52;15.80;91.00
29345;DHT22;16339;48.748;2.222;2023-05-10T03:14:32;15.80;91.20
29345;DHT22;16339;48.748;2.222;2023-05-10T03:17:08;15.80;91.20
29345;DHT22;16339;48.748;2.222;2023-05-10T03:19:46;15.80;91.20
29345;DHT22;16339;48.748;2.222;2023-05-10T03:22:23;15.70;91.10
29345;DHT22;16339;48.748;2.222;2023-05-10T03:24:55;15.70;91.30
29345;DHT22;16339;48.748;2.222;2023-05-10T03:27:26;15.80;91.30
29345;DHT22;16339;48.748;2.222;2023-05-10T03:29:56;15.90;91.10
29345;DHT22;16339;48.748;2.222;2023-05-10T03:32:26;15.90;91.30
29345;DHT22;16339;48.748;2.222;2023-05-10T03:34:58;16.00;91.30
29345;DHT22;16339;48.748;2.222;2023-05-10T03:37:27;15.90;91.20
29345;DHT22;16339;48.748;2.222;2023-05-10T03:39:56;15.90;91.20
29345;DHT22;16339;48.748;2.222;2023-05-10T03:42:25;16.00;91.40
29345;DHT22;16339;48.748;2.222;2023-05-10T03:44:54;16.00;91.30
29345;DHT22;16339;48.748;2.222;2023-05-10T03:47:22;15.90;91.50
29345;DHT22;16339;48.748;2.222;2023-05-10T03:49:51;15.80;92.00
29345;DHT22;16339;48.748;2.222;2023-05-10T03:52:23;15.70;92.90
29345;DHT22;16339;48.748;2.222;2023-05-10T03:54:51;15.60;93.40
29345;DHT22;16339;48.748;2.222;2023-05-10T03:57:20;15.60;93.40
29345;DHT22;16339;48.748;2.222;2023-05-10T03:59:49;15.60;93.50
29345;DHT22;16339;48.748;2.222;2023-05-10T04:02:17;15.60;93.80
29345;DHT22;16339;48.748;2.222;2023-05-10T04:04:46;15.60;93.90
29345;DHT22;16339;48.748;2.222;2023-05-10T04:07:15;15.70;93.80
29345;DHT22;16339;48.748;2.222;2023-05-10T04:09:47;15.80;93.80
29345;DHT22;16339;48.748;2.222;2023-05-10T04:12:15;15.80;93.90
29345;DHT22;16339;48.748;2.222;2023-05-10T04:14:44;15.90;94.00
29345;DHT22;16339;48.748;2.222;2023-05-10T04:17:13;15.90;94.30
29345;DHT22;16339;48.748;2.222;2023-05-10T04:19:41;15.90;93.70
29345;DHT22;16339;48.748;2.222;2023-05-10T04:22:10;15.90;93.90
29345;DHT22;16339;48.748;2.222;2023-05-10T04:24:39;15.90;93.80
29345;DHT22;16339;48.748;2.222;2023-05-10T04:27:10;15.80;93.90
29345;DHT22;16339;48.748;2.222;2023-05-10T04:29:39;15.80;93.90
29345;DHT22;16339;48.748;2.222;2023-05-10T04:32:07;15.80;94.00
29345;DHT22;16339;48.748;2.222;2023-05-10T04:34:36;15.80;94.10
29345;DHT22;16339;48.748;2.222;2023-05-10T04:37:05;15.80;94.00
29345;DHT22;16339;48.748;2.222;2023-05-10T04:39:34;15.80;94.20
29345;DHT22;16339;48.748;2.222;2023-05-10T04:42:03;15.90;94.40
29345;DHT22;16339;48.748;2.222;2023-05-10T04:44:35;15.90;94.60
29345;DHT22;16339;48.748;2.222;2023-05-10T04:47:04;15.90;94.30
29345;DHT22;16339;48.748;2.222;2023-05-10T04:49:35;15.90;94.50
29345;DHT22;16339;48.748;2.222;2023-05-10T04:52:04;15.80;94.60
29345;DHT22;16339;48.748;2.222;2023-05-10T04:54:32;15.80;95.00
29345;DHT22;16339;48.748;2.222;2023-05-10T04:57:01;15.80;94.90
29345;DHT22;16339;48.748;2.222;2023-05-10T04:59:30;15.90;95.10
29345;DHT22;16339;48.748;2.222;2023-05-10T05:02:01;15.90;94.80
29345;DHT22;16339;48.748;2.222;2023-05-10T05:04:30;15.80;95.10
29345;DHT22;16339;48.748;2.222;2023-05-10T05:06:59;15.70;94.40
29345;DHT22;16339;48.748;2.222;2023-05-10T05:09:27;15.70;94.50
29345;DHT22;16339;48.748;2.222;2023-05-10T05:11:57;15.70;94.60
29345;DHT22;16339;48.748;2.222;2023-05-10T05:14:26;15.50;94.30
29345;DHT22;16339;48.748;2.222;2023-05-10T05:16:55;15.50;94.60
29345;DHT22;16339;48.748;2.222;2023-05-10T05:19:31;15.40;94.70
29345;DHT22;16339;48.748;2.222;2023-05-10T05:21:59;15.40;94.90
29345;DHT22;16339;48.748;2.222;2023-05-10T05:24:28;15.40;94.90
29345;DHT22;16339;48.748;2.222;2023-05-10T05:26:57;15.40;95.00
29345;DHT22;16339;48.748;2.222;2023-05-10T05:29:26;15.30;94.90
29345;DHT22;16339;48.748;2.222;2023-05-10T05:31:55;15.20;94.90
29345;DHT22;16339;48.748;2.222;2023-05-10T05:34:24;15.30;95.20
29345;DHT22;16339;48.748;2.222;2023-05-10T05:36:55;15.30;95.20
29345;DHT22;16339;48.748;2.222;2023-05-10T05:39:24;15.30;95.10
29345;DHT22;16339;48.748;2.222;2023-05-10T05:41:52;15.40;95.20
29345;DHT22;16339;48.748;2.222;2023-05-10T05:44:21;15.30;95.20
29345;DHT22;16339;48.748;2.222;2023-05-10T05:46:50;15.50;95.50
29345;DHT22;16339;48.748;2.222;2023-05-10T05:49:18;15.60;95.50
29345;DHT22;16339;48.748;2.222;2023-05-10T05:51:47;15.70;95.60
29345;DHT22;16339;48.748;2.222;2023-05-10T05:54:18;15.80;95.20
29345;DHT22;16339;48.748;2.222;2023-05-10T05:56:47;15.90;95.10
29345;DHT22;16339;48.748;2.222;2023-05-10T05:59:15;15.90;95.20
29345;DHT22;16339;48.748;2.222;2023-05-10T06:01:44;15.80;95.20
29345;DHT22;16339;48.748;2.222;2023-05-10T06:04:14;15.90;95.00
29345;DHT22;16339;48.748;2.222;2023-05-10T06:06:43;15.60;95.10
29345;DHT22;16339;48.748;2.222;2023-05-10T06:09:12;15.50;95.80
29345;DHT22;16339;48.748;2.222;2023-05-10T06:11:44;15.40;96.00
29345;DHT22;16339;48.748;2.222;2023-05-10T06:14:12;15.40;96.10
29345;DHT22;16339;48.748;2.222;2023-05-10T06:16:41;15.40;96.30
29345;DHT22;16339;48.748;2.222;2023-05-10T06:19:10;15.50;96.50
29345;DHT22;16339;48.748;2.222;2023-05-10T06:21:38;15.40;96.50
29345;DHT22;16339;48.748;2.222;2023-05-10T06:24:07;15.50;96.60
29345;DHT22;16339;48.748;2.222;2023-05-10T06:26:36;15.30;96.20
29345;DHT22;16339;48.748;2.222;2023-05-10T06:29:07;15.40;96.70
29345;DHT22;16339;48.748;2.222;2023-05-10T06:31:36;15.30;96.60
29345;DHT22;16339;48.748;2.222;2023-05-10T06:34:05;15.40;96.60
29345;DHT22;16339;48.748;2.222;2023-05-10T06:36:34;15.50;96.70
29345;DHT22;16339;48.748;2.222;2023-05-10T06:39:03;15.40;96.60
29345;DHT22;16339;48.748;2.222;2023-05-10T06:41:32;15.20;96.50
29345;DHT22;16339;48.748;2.222;2023-05-10T06:44:02;15.20;96.90
29345;DHT22;16339;48.748;2.222;2023-05-10T06:46:34;15.10;96.70
29345;DHT22;16339;48.748;2.222;2023-05-10T06:49:02;15.20;97.20
29345;DHT22;16339;48.748;2.222;2023-05-10T06:51:33;15.30;97.00
29345;DHT22;16339;48.748;2.222;2023-05-10T06:54:02;15.50;97.30
29345;DHT22;16339;48.748;2.222;2023-05-10T06:56:31;15.50;97.10
29345;DHT22;16339;48.748;2.222;2023-05-10T06:59:00;15.40;96.90
29345;DHT22;16339;48.748;2.222;2023-05-10T07:01:29;15.50;96.70
29345;DHT22;16339;48.748;2.222;2023-05-10T07:04:00;15.40;96.90
29345;DHT22;16339;48.748;2.222;2023-05-10T07:06:29;15.30;96.70
29345;DHT22;16339;48.748;2.222;2023-05-10T07:08:59;15.20;96.90
29345;DHT22;16339;48.748;2.222;2023-05-10T07:11:27;15.40;96.80
29345;DHT22;16339;48.748;2.222;2023-05-10T07:13:56;15.10;96.70
29345;DHT22;16339;48.748;2.222;2023-05-10T07:16:25;15.10;96.70
29345;DHT22;16339;48.748;2.222;2023-05-10T07:18:54;15.20;97.10
29345;DHT22;16339;48.748;2.222;2023-05-10T07:21:25;15.30;97.10
29345;DHT22;16339;48.748;2.222;2023-05-10T07:23:54;15.50;97.00
29345;DHT22;16339;48.748;2.222;2023-05-10T07:26:23;15.40;96.80
29345;DHT22;16339;48.748;2.222;2023-05-10T07:28:52;15.40;96.60
29345;DHT22;16339;48.748;2.222;2023-05-10T07:31:21;15.50;96.60
29345;DHT22;16339;48.748;2.222;2023-05-10T07:33:49;15.50;96.70
29345;DHT22;16339;48.748;2.222;2023-05-10T07:36:18;15.60;96.60
29345;DHT22;16339;48.748;2.222;2023-05-10T07:38:49;15.50;96.80
29345;DHT22;16339;48.748;2.222;2023-05-10T07:41:18;15.50;96.50
29345;DHT22;16339;48.748;2.222;2023-05-10T07:43:48;15.40;96.80
29345;DHT22;16339;48.748;2.222;2023-05-10T07:46:17;15.30;97.40
29345;DHT22;16339;48.748;2.222;2023-05-10T07:48:45;15.50;97.00
29345;DHT22;16339;48.748;2.222;2023-05-10T07:51:14;15.20;97.30
29345;DHT22;16339;48.748;2.222;2023-05-10T07:53:43;15.40;97.30
29345;DHT22;16339;48.748;2.222;2023-05-10T07:56:27;15.30;97.20
29345;DHT22;16339;48.748;2.222;2023-05-10T07:58:57;15.10;97.40
29345;DHT22;16339;48.748;2.222;2023-05-10T08:01:29;15.00;98.00
29345;DHT22;16339;48.748;2.222;2023-05-10T08:03:58;15.10;97.70
29345;DHT22;16339;48.748;2.222;2023-05-10T08:06:27;15.30;97.70
29345;DHT22;16339;48.748;2.222;2023-05-10T08:08:56;15.20;97.30
29345;DHT22;16339;48.748;2.222;2023-05-10T08:11:27;15.30;97.60
29345;DHT22;16339;48.748;2.222;2023-05-10T08:13:56;15.30;97.50
29345;DHT22;16339;48.748;2.222;2023-05-10T08:16:25;15.70;97.50
29345;DHT22;16339;48.748;2.222;2023-05-10T08:18:54;15.60;96.90
29345;DHT22;16339;48.748;2.222;2023-05-10T08:21:23;15.70;96.90
29345;DHT22;16339;48.748;2.222;2023-05-10T08:23:52;15.60;96.70
29345;DHT22;16339;48.748;2.222;2023-05-10T08:26:20;15.50;97.00
29345;DHT22;16339;48.748;2.222;2023-05-10T08:28:52;15.60;97.00
29345;DHT22;16339;48.748;2.222;2023-05-10T08:31:21;15.80;97.00
29345;DHT22;16339;48.748;2.222;2023-05-10T08:33:50;15.50;97.00
29345;DHT22;16339;48.748;2.222;2023-05-10T08:36:19;15.70;97.00
29345;DHT22;16339;48.748;2.222;2023-05-10T08:38:50;15.50;96.70
29345;DHT22;16339;48.748;2.222;2023-05-10T08:41:20;15.60;97.10
29345;DHT22;16339;48.748;2.222;2023-05-10T08:43:53;15.70;96.80
29345;DHT22;16339;48.748;2.222;2023-05-10T08:46:22;15.60;96.70
29345;DHT22;16339;48.748;2.222;2023-05-10T08:48:53;15.60;96.40
29345;DHT22;16339;48.748;2.222;2023-05-10T08:51:24;15.40;96.20
29345;DHT22;16339;48.748;2.222;2023-05-10T08:53:55;15.20;96.90
29345;DHT22;16339;48.748;2.222;2023-05-10T08:56:24;15.20;96.60
29345;DHT22;16339;48.748;2.222;2023-05-10T08:58:57;15.20;96.70
29345;DHT22;16339;48.748;2.222;2023-05-10T09:01:27;15.10;96.80
29345;DHT22;16339;48.748;2.222;2023-05-10T09:03:56;15.00;97.00
29345;DHT22;16339;48.748;2.222;2023-05-10T09:06:25;15.00;97.50
29345;DHT22;16339;48.748;2.222;2023-05-10T09:08:54;15.00;97.30
29345;DHT22;16339;48.748;2.222;2023-05-10T09:11:24;15.10;96.90
29345;DHT22;16339;48.748;2.222;2023-05-10T09:13:57;15.00;96.60
29345;DHT22;16339;48.748;2.222;2023-05-10T09:16:26;15.10;97.10
29345;DHT22;16339;48.748;2.222;2023-05-10T09:18:54;15.00;97.00
29345;DHT22;16339;48.748;2.222;2023-05-10T09:21:23;15.20;97.00
29345;DHT22;16339;48.748;2.222;2023-05-10T09:23:52;15.30;96.70
29345;DHT22;16339;48.748;2.222;2023-05-10T09:26:22;15.30;96.70
29345;DHT22;16339;48.748;2.222;2023-05-10T09:28:53;15.30;97.00
29345;DHT22;16339;48.748;2.222;2023-05-10T09:31:25;15.50;96.80
29345;DHT22;16339;48.748;2.222;2023-05-10T09:34:15;15.70;96.40
29345;DHT22;16339;48.748;2.222;2023-05-10T09:36:57;15.60;96.00
29345;DHT22;16339;48.748;2.222;2023-05-10T09:39:34;15.60;96.10
29345;DHT22;16339;48.748;2.222;2023-05-10T09:42:05;15.80;96.10
29345;DHT22;16339;48.748;2.222;2023-05-10T09:44:35;15.80;95.70
29345;DHT22;16339;48.748;2.222;2023-05-10T09:47:06;15.90;95.40
29345;DHT22;16339;48.748;2.222;2023-05-10T09:49:35;16.00;95.50
29345;DHT22;16339;48.748;2.222;2023-05-10T09:52:05;16.10;95.50
29345;DHT22;16339;48.748;2.222;2023-05-10T09:54:34;16.00;95.30
29345;DHT22;16339;48.748;2.222;2023-05-10T09:57:03;16.10;95.00
29345;DHT22;16339;48.748;2.222;2023-05-10T09:59:33;15.80;95.20
29345;DHT22;16339;48.748;2.222;2023-05-10T10:02:06;16.00;95.20
29345;DHT22;16339;48.748;2.222;2023-05-10T10:04:39;16.10;94.90
29345;DHT22;16339;48.748;2.222;2023-05-10T10:07:08;16.20;95.00
29345;DHT22;16339;48.748;2.222;2023-05-10T10:09:36;16.10;94.60
29345;DHT22;16339;48.748;2.222;2023-05-10T10:12:06;16.10;94.50
29345;DHT22;16339;48.748;2.222;2023-05-10T10:14:35;16.40;94.60
29345;DHT22;16339;48.748;2.222;2023-05-10T10:17:07;16.20;94.40
29345;DHT22;16339;48.748;2.222;2023-05-10T10:19:36;16.10;94.30
29345;DHT22;16339;48.748;2.222;2023-05-10T10:22:05;16.10;94.20
29345;DHT22;16339;48.748;2.222;2023-05-10T10:24:33;16.10;94.50
29345;DHT22;16339;48.748;2.222;2023-05-10T10:27:10;15.90;94.50
29345;DHT22;16339;48.748;2.222;2023-05-10T10:29:47;16.00;94.80
29345;DHT22;16339;48.748;2.222;2023-05-10T10:32:33;15.90;94.80
29345;DHT22;16339;48.748;2.222;2023-05-10T10:35:04;16.10;94.60
29345;DHT22;16339;48.748;2.222;2023-05-10T10:37:45;16.30;94.20
29345;DHT22;16339;48.748;2.222;2023-05-10T10:40:29;16.30;94.30
29345;DHT22;16339;48.748;2.222;2023-05-10T10:43:22;16.60;93.90
29345;DHT22;16339;48.748;2.222;2023-05-10T10:46:12;16.60;93.40
29345;DHT22;16339;48.748;2.222;2023-05-10T10:49:08;16.70;93.60
29345;DHT22;16339;48.748;2.222;2023-05-10T10:51:37;16.70;93.60
29345;DHT22;16339;48.748;2.222;2023-05-10T10:54:09;16.60;93.00
29345;DHT22;16339;48.748;2.222;2023-05-10T10:56:38;16.40;92.90
29345;DHT22;16339;48.748;2.222;2023-05-10T10:59:07;16.60;93.00
29345;DHT22;16339;48.748;2.222;2023-05-10T11:01:36;16.70;92.80
29345;DHT22;16339;48.748;2.222;2023-05-10T11:04:22;16.90;92.80
29345;DHT22;16339;48.748;2.222;2023-05-10T11:07:19;17.00;92.40
29345;DHT22;16339;48.748;2.222;2023-05-10T11:09:48;16.90;92.20
29345;DHT22;16339;48.748;2.222;2023-05-10T11:12:19;16.80;92.00
29345;DHT22;16339;48.748;2.222;2023-05-10T11:14:50;17.00;92.10
29345;DHT22;16339;48.748;2.222;2023-05-10T11:17:26;17.10;92.50
29345;DHT22;16339;48.748;2.222;2023-05-10T11:20:09;17.10;91.70
29345;DHT22;16339;48.748;2.222;2023-05-10T11:22:53;17.30;92.10
29345;DHT22;16339;48.748;2.222;2023-05-10T11:25:26;17.30;91.30
29345;DHT22;16339;48.748;2.222;2023-05-10T11:27:55;17.30;91.30
29345;DHT22;16339;48.748;2.222;2023-05-10T11:30:24;17.40;91.50
29345;DHT22;16339;48.748;2.222;2023-05-10T11:32:53;17.60;91.50
29345;DHT22;16339;48.748;2.222;2023-05-10T11:35:22;17.80;91.30
29345;DHT22;16339;48.748;2.222;2023-05-10T11:37:56;17.50;91.00
29345;DHT22;16339;48.748;2.222;2023-05-10T11:40:25;17.50;90.80
29345;DHT22;16339;48.748;2.222;2023-05-10T11:42:56;17.70;90.30
29345;DHT22;16339;48.748;2.222;2023-05-10T11:45:24;17.60;90.40
29345;DHT22;16339;48.748;2.222;2023-05-10T11:47:53;17.40;90.10
29345;DHT22;16339;48.748;2.222;2023-05-10T11:50:22;17.40;90.40
29345;DHT22;16339;48.748;2.222;2023-05-10T11:52:52;17.40;90.60
29345;DHT22;16339;48.748;2.222;2023-05-10T11:55:23;17.50;90.30
29345;DHT22;16339;48.748;2.222;2023-05-10T11:57:53;17.50;90.20
29345;DHT22;16339;48.748;2.222;2023-05-10T12:00:24;17.70;89.90
29345;DHT22;16339;48.748;2.222;2023-05-10T12:02:52;17.70;89.10
29345;DHT22;16339;48.748;2.222;2023-05-10T12:05:21;17.80;88.60
29345;DHT22;16339;48.748;2.222;2023-05-10T12:07:50;18.00;90.10
29345;DHT22;16339;48.748;2.222;2023-05-10T12:10:28;18.20;89.80
29345;DHT22;16339;48.748;2.222;2023-05-10T12:12:58;18.20;88.50
29345;DHT22;16339;48.748;2.222;2023-05-10T12:15:27;18.10;88.30
29345;DHT22;16339;48.748;2.222;2023-05-10T12:17:57;18.20;86.40
29345;DHT22;16339;48.748;2.222;2023-05-10T12:20:28;18.20;86.80
29345;DHT22;16339;48.748;2.222;2023-05-10T12:22:58;18.10;87.60
29345;DHT22;16339;48.748;2.222;2023-05-10T12:25:33;18.20;88.20
29345;DHT22;16339;48.748;2.222;2023-05-10T12:28:03;18.30;87.30
29345;DHT22;16339;48.748;2.222;2023-05-10T12:30:35;18.40;86.70
29345;DHT22;16339;48.748;2.222;2023-05-10T12:33:08;18.60;85.70
29345;DHT22;16339;48.748;2.222;2023-05-10T12:35:44;18.30;83.70
29345;DHT22;16339;48.748;2.222;2023-05-10T12:38:25;18.20;84.50
29345;DHT22;16339;48.748;2.222;2023-05-10T12:40:58;18.20;85.40
29345;DHT22;16339;48.748;2.222;2023-05-10T12:43:27;18.30;85.90
29345;DHT22;16339;48.748;2.222;2023-05-10T12:45:56;18.30;85.80
29345;DHT22;16339;48.748;2.222;2023-05-10T12:48:24;18.40;85.90
29345;DHT22;16339;48.748;2.222;2023-05-10T12:50:54;18.50;86.30
29345;DHT22;16339;48.748;2.222;2023-05-10T12:53:23;18.40;86.10
29345;DHT22;16339;48.748;2.222;2023-05-10T12:55:52;18.20;86.00
29345;DHT22;16339;48.748;2.222;2023-05-10T12:58:23;18.40;85.80
29345;DHT22;16339;48.748;2.222;2023-05-10T13:00:52;18.50;86.30
29345;DHT22;16339;48.748;2.222;2023-05-10T13:03:22;18.50;84.50
29345;DHT22;16339;48.748;2.222;2023-05-10T13:05:50;18.50;84.20
29345;DHT22;16339;48.748;2.222;2023-05-10T13:08:21;18.50;85.50
29345;DHT22;16339;48.748;2.222;2023-05-10T13:10:50;18.50;87.10
29345;DHT22;16339;48.748;2.222;2023-05-10T13:13:19;18.60;87.00
29345;DHT22;16339;48.748;2.222;2023-05-10T13:15:50;18.80;86.00
29345;DHT22;16339;48.748;2.222;2023-05-10T13:18:19;19.00;82.90
29345;DHT22;16339;48.748;2.222;2023-05-10T13:20:47;19.20;84.40
29345;DHT22;16339;48.748;2.222;2023-05-10T13:23:16;19.40;82.60
29345;DHT22;16339;48.748;2.222;2023-05-10T13:25:45;19.20;80.80
29345;DHT22;16339;48.748;2.222;2023-05-10T13:28:13;19.20;81.10
29345;DHT22;16339;48.748;2.222;2023-05-10T13:30:42;19.30;82.40
29345;DHT22;16339;48.748;2.222;2023-05-10T13:33:13;19.20;77.60
29345;DHT22;16339;48.748;2.222;2023-05-10T13:35:44;19.00;79.50
29345;DHT22;16339;48.748;2.222;2023-05-10T13:38:12;19.00;79.60
29345;DHT22;16339;48.748;2.222;2023-05-10T13:40:41;19.00;80.00
29345;DHT22;16339;48.748;2.222;2023-05-10T13:43:10;19.10;79.80
29345;DHT22;16339;48.748;2.222;2023-05-10T13:45:38;19.30;77.40
29345;DHT22;16339;48.748;2.222;2023-05-10T13:48:08;19.40;76.20
29345;DHT22;16339;48.748;2.222;2023-05-10T13:50:40;19.30;78.50
29345;DHT22;16339;48.748;2.222;2023-05-10T13:53:08;19.30;79.40
29345;DHT22;16339;48.748;2.222;2023-05-10T13:55:37;19.40;77.40
29345;DHT22;16339;48.748;2.222;2023-05-10T13:58:06;19.40;78.50
29345;DHT22;16339;48.748;2.222;2023-05-10T14:00:34;19.30;78.60
29345;DHT22;16339;48.748;2.222;2023-05-10T14:03:06;19.30;76.90
29345;DHT22;16339;48.748;2.222;2023-05-10T14:05:39;19.10;76.80
29345;DHT22;16339;48.748;2.222;2023-05-10T14:08:07;19.30;76.50
29345;DHT22;16339;48.748;2.222;2023-05-10T14:10:38;19.40;76.60
29345;DHT22;16339;48.748;2.222;2023-05-10T14:13:07;19.30;78.00
29345;DHT22;16339;48.748;2.222;2023-05-10T14:15:36;19.20;77.50
29345;DHT22;16339;48.748;2.222;2023-05-10T14:18:04;19.00;75.60
29345;DHT22;16339;48.748;2.222;2023-05-10T14:20:33;18.90;77.10
29345;DHT22;16339;48.748;2.222;2023-05-10T14:23:05;18.70;78.50
29345;DHT22;16339;48.748;2.222;2023-05-10T14:25:34;18.70;76.60
29345;DHT22;16339;48.748;2.222;2023-05-10T14:28:03;18.60;76.30
29345;DHT22;16339;48.748;2.222;2023-05-10T14:30:32;18.60;75.80
29345;DHT22;16339;48.748;2.222;2023-05-10T14:33:02;18.80;77.00
29345;DHT22;16339;48.748;2.222;2023-05-10T14:35:31;18.80;77.10
29345;DHT22;16339;48.748;2.222;2023-05-10T14:38:05;18.90;76.50
29345;DHT22;16339;48.748;2.222;2023-05-10T14:40:34;18.90;77.20
29345;DHT22;16339;48.748;2.222;2023-05-10T14:43:02;18.80;78.20
29345;DHT22;16339;48.748;2.222;2023-05-10T14:45:31;18.90;79.00
29345;DHT22;16339;48.748;2.222;2023-05-10T14:48:00;18.80;79.50
29345;DHT22;16339;48.748;2.222;2023-05-10T14:50:30;18.80;80.20
29345;DHT22;16339;48.748;2.222;2023-05-10T14:52:58;19.00;79.90
29345;DHT22;16339;48.748;2.222;2023-05-10T14:55:30;19.10;80.90
29345;DHT22;16339;48.748;2.222;2023-05-10T14:58:00;19.30;79.00
29345;DHT22;16339;48.748;2.222;2023-05-10T15:00:29;19.40;77.80
29345;DHT22;16339;48.748;2.222;2023-05-10T15:02:58;19.50;75.90
29345;DHT22;16339;48.748;2.222;2023-05-10T15:05:27;19.70;76.40
29345;DHT22;16339;48.748;2.222;2023-05-10T15:07:56;19.90;75.30
29345;DHT22;16339;48.748;2.222;2023-05-10T15:10:24;20.10;75.60
29345;DHT22;16339;48.748;2.222;2023-05-10T15:12:56;20.10;73.90
29345;DHT22;16339;48.748;2.222;2023-05-10T15:15:24;19.80;75.50
29345;DHT22;16339;48.748;2.222;2023-05-10T15:17:53;19.80;76.10
29345;DHT22;16339;48.748;2.222;2023-05-10T15:20:22;19.70;76.20
29345;DHT22;16339;48.748;2.222;2023-05-10T15:22:52;19.80;77.30
29345;DHT22;16339;48.748;2.222;2023-05-10T15:25:21;19.90;76.30
29345;DHT22;16339;48.748;2.222;2023-05-10T15:27:50;20.00;74.80
29345;DHT22;16339;48.748;2.222;2023-05-10T15:30:21;20.00;73.80
29345;DHT22;16339;48.748;2.222;2023-05-10T15:32:50;20.20;73.30
29345;DHT22;16339;48.748;2.222;2023-05-10T15:35:19;20.30;72.60
29345;DHT22;16339;48.748;2.222;2023-05-10T15:37:48;20.20;72.80
29345;DHT22;16339;48.748;2.222;2023-05-10T15:40:17;20.00;74.70
29345;DHT22;16339;48.748;2.222;2023-05-10T15:42:45;20.00;73.90
29345;DHT22;16339;48.748;2.222;2023-05-10T15:45:14;19.90;74.50
29345;DHT22;16339;48.748;2.222;2023-05-10T15:47:46;19.70;75.70
29345;DHT22;16339;48.748;2.222;2023-05-10T15:50:15;19.60;77.50
29345;DHT22;16339;48.748;2.222;2023-05-10T15:52:44;19.60;77.60
29345;DHT22;16339;48.748;2.222;2023-05-10T15:55:12;19.70;78.40